Flight Track Log - Related Links

Times and Time Zones

All times are in EST time to prevent confusion due to time zone crossing. See the UAL33 flight status page for this flight to view local times or setup timezone preferences in your user account.

Time Position Orientation Groundspeed Altitude Reporting Facility
EST Latitude Longitude Course Direction KTS MPH feet Rate Location/Type
Thu 04:38:00 AM 36.0300 140.8759 98° East  Level Estimated
Thu 04:39:00 AM 35.9289 141.0276 129° Southeast  Level FlightAware Approximate
Thu 04:40:00 AM 36.0167 141.1915 104° East  Level Estimated
Thu 04:41:00 AM 36.1044 141.3556 98° East  Level Estimated
Thu 04:42:00 AM 35.9912 141.4938 135° Southeast  Level FlightAware Approximate
Thu 04:43:00 AM 36.0784 141.6582 102° East  Level Estimated
Thu 04:44:00 AM 36.1655 141.8230 97° East  Level Estimated
Thu 04:45:00 AM 36.2523 141.9881 103° East  Level Estimated
Thu 04:46:00 AM 36.3390 142.1536 104° East  Level Estimated
Thu 04:47:00 AM 36.4253 142.3194 101° East  Level Estimated
Thu 04:48:00 AM 36.2981 142.4379 143° Southeast  Level FlightAware Approximate
Thu 04:49:00 AM 36.1707 142.5559 143° Southeast  Level FlightAware Approximate
Thu 04:50:00 AM 36.2567 142.7218 101° East  Level Estimated
Thu 04:51:00 AM 36.1339 142.8470 141° Southeast  Level FlightAware Approximate
Thu 04:52:00 AM 36.2196 143.0130 87° East  Level Estimated
Thu 04:53:00 AM 36.1518 143.1912 115° Southeast  Level FlightAware Approximate
Thu 04:54:00 AM 36.0837 143.3692 115° Southeast  Level FlightAware Approximate
Thu 04:55:00 AM 36.0154 143.5468 115° Southeast  Level FlightAware Approximate
Thu 04:56:00 AM 35.9468 143.7241 115° Southeast  Level FlightAware Approximate
Thu 04:57:00 AM 35.8779 143.9011 116° Southeast  Level FlightAware Approximate
Thu 04:58:00 AM 35.8088 144.0778 116° Southeast  Level FlightAware Approximate
Thu 04:59:00 AM 35.7395 144.2542 116° Southeast  Level FlightAware Approximate
Thu 05:00:00 AM 35.8237 144.4204 88° East  Level Estimated
Thu 05:01:00 AM 35.7659 144.6030 111° Southeast  Level FlightAware Approximate
Thu 05:02:00 AM 35.7077 144.7854 111° Southeast  Level FlightAware Approximate
Thu 05:03:00 AM 35.7914 144.9520 77° East  Level Estimated
Thu 05:04:00 AM 35.8034 145.1475 86° East  Level FlightAware Approximate
Thu 05:05:00 AM 35.8152 145.3431 86° East  Level FlightAware Approximate
Thu 05:06:00 AM 35.8266 145.5387 86° East  Level FlightAware Approximate
Thu 05:07:00 AM 35.8377 145.7344 86° East  Level FlightAware Approximate
Thu 05:08:00 AM 35.8484 145.9302 86° East  Level FlightAware Approximate
Thu 05:09:00 AM 35.8589 146.1259 86° East  Level FlightAware Approximate
Thu 05:10:00 AM 35.8690 146.3218 86° East  Level FlightAware Approximate
Thu 05:11:00 AM 35.8788 146.5177 86° East  Level FlightAware Approximate
Thu 05:12:00 AM 35.8883 146.7136 87° East  Level FlightAware Approximate
Thu 05:13:00 AM 35.8969 146.8960 87° East  Level FlightAware Approximate
Thu 05:14:00 AM 35.9052 147.0784 87° East  Level FlightAware Approximate
Thu 05:15:00 AM 35.9132 147.2608 87° East  Level FlightAware Approximate
Thu 05:16:00 AM 35.9209 147.4433 87° East  Level FlightAware Approximate
Thu 05:17:00 AM 35.9283 147.6258 87° East  Level FlightAware Approximate
Thu 05:18:00 AM 35.9355 147.8083 87° East  Level FlightAware Approximate
Thu 05:19:00 AM 35.9424 147.9909 87° East  Level FlightAware Approximate
Thu 05:20:00 AM 35.9490 148.1735 87° East  Level FlightAware Approximate
Thu 05:21:00 AM 35.9554 148.3561 87° East  Level FlightAware Approximate
Thu 05:22:00 AM 35.9614 148.5388 88° East  Level FlightAware Approximate
Thu 05:23:00 AM 35.9672 148.7215 88° East  Level FlightAware Approximate
Thu 05:24:00 AM 35.9728 148.9042 88° East  Level FlightAware Approximate
Thu 05:25:00 AM 36.0462 149.0630 87° East  Level Estimated
Thu 05:26:00 AM 36.0536 149.2458 87° East  Level FlightAware Approximate
Thu 05:27:00 AM 36.0607 149.4286 87° East  Level FlightAware Approximate
Thu 05:28:00 AM 36.0676 149.6115 87° East  Level FlightAware Approximate
Thu 05:29:00 AM 36.0742 149.7944 87° East  Level FlightAware Approximate
Thu 05:30:00 AM 36.0805 149.9773 88° East  Level FlightAware Approximate
Thu 05:31:00 AM 36.0865 150.1603 88° East  Level FlightAware Approximate
Thu 05:32:00 AM 36.0922 150.3433 88° East  Level FlightAware Approximate
Thu 05:33:00 AM 36.0977 150.5263 88° East  Level FlightAware Approximate
Thu 05:34:00 AM 36.1029 150.7093 88° East  Level FlightAware Approximate
Thu 05:35:00 AM 36.1078 150.8924 88° East  Level FlightAware Approximate
Thu 05:36:00 AM 36.1124 151.0754 88° East  Level FlightAware Approximate
Thu 05:37:00 AM 36.1168 151.2585 88° East  Level FlightAware Approximate
Thu 05:38:00 AM 36.1208 151.4417 88° East  Level FlightAware Approximate
Thu 05:39:00 AM 36.1246 151.6248 88° East  Level FlightAware Approximate
Thu 05:40:00 AM 36.1282 151.8080 89° East  Level FlightAware Approximate
Thu 05:41:00 AM 36.1314 151.9911 89° East  Level FlightAware Approximate
Thu 05:42:00 AM 36.1344 152.1743 89° East  Level FlightAware Approximate
Thu 05:43:00 AM 36.1370 152.3575 89° East  Level FlightAware Approximate
Thu 05:44:00 AM 36.1394 152.5407 89° East  Level FlightAware Approximate
Thu 05:45:00 AM 36.1416 152.7239 89° East  Level FlightAware Approximate
Thu 05:46:00 AM 36.1434 152.9072 89° East  Level FlightAware Approximate
Thu 05:47:00 AM 36.1450 153.0904 89° East  Level FlightAware Approximate
Thu 05:48:00 AM 36.1462 153.2736 89° East  Level FlightAware Approximate
Thu 05:49:00 AM 36.1472 153.4569 90° East  Level FlightAware Approximate
Thu 05:50:00 AM 36.1480 153.6401 90° East  Level FlightAware Approximate
Thu 05:51:00 AM 36.1484 153.8234 90° East  Level FlightAware Approximate
Thu 05:52:00 AM 36.1486 154.0067 90° East  Level FlightAware Approximate
Thu 05:53:00 AM 36.1485 154.1899 90° East  Level FlightAware Approximate
Thu 05:54:00 AM 36.1481 154.3732 90° East  Level FlightAware Approximate
Thu 05:55:00 AM 36.1474 154.5564 90° East  Level FlightAware Approximate
Thu 05:56:00 AM 36.1465 154.7397 90° East  Level FlightAware Approximate
Thu 05:57:00 AM 36.1452 154.9229 90° East  Level FlightAware Approximate
Thu 05:58:00 AM 36.1437 155.1062 91° East  Level FlightAware Approximate
Thu 05:59:00 AM 36.1419 155.2894 91° East  Level FlightAware Approximate
Thu 06:00:00 AM 36.1399 155.4726 91° East  Level FlightAware Approximate
Thu 06:01:00 AM 36.1375 155.6558 91° East  Level FlightAware Approximate
Thu 06:02:00 AM 36.1349 155.8390 91° East  Level FlightAware Approximate
Thu 06:03:00 AM 36.1320 156.0222 91° East  Level FlightAware Approximate
Thu 06:04:00 AM 36.1288 156.2054 91° East  Level FlightAware Approximate
Thu 06:05:00 AM 36.1254 156.3885 91° East  Level FlightAware Approximate
Thu 06:06:00 AM 36.1216 156.5717 91° East  Level FlightAware Approximate
Thu 06:07:00 AM 36.1176 156.7548 92° East  Level FlightAware Approximate
Thu 06:08:00 AM 36.1133 156.9379 92° East  Level FlightAware Approximate
Thu 06:09:00 AM 36.1087 157.1210 92° East  Level FlightAware Approximate
Thu 06:10:00 AM 36.1039 157.3040 92° East  Level FlightAware Approximate
Thu 06:11:00 AM 36.0987 157.4871 92° East  Level FlightAware Approximate
Thu 06:12:00 AM 36.0933 157.6701 92° East  Level FlightAware Approximate
Thu 06:13:00 AM 36.0876 157.8531 92° East  Level FlightAware Approximate
Thu 06:14:00 AM 36.0817 158.0360 92° East  Level FlightAware Approximate
Thu 06:15:00 AM 36.0754 158.2190 92° East  Level FlightAware Approximate
Thu 06:16:00 AM 36.0689 158.4019 92° East  Level FlightAware Approximate
Thu 06:17:00 AM 36.0621 158.5847 93° East  Level FlightAware Approximate
Thu 06:18:00 AM 36.0550 158.7676 93° East  Level FlightAware Approximate
Thu 06:19:00 AM 36.0476 158.9504 93° East  Level FlightAware Approximate
Thu 06:20:00 AM 36.1108 159.1160 88° East  Level Estimated
Thu 06:21:00 AM 36.1018 159.2988 93° East  Level FlightAware Approximate
Thu 06:22:00 AM 36.0926 159.4816 94° East  Level FlightAware Approximate
Thu 06:23:00 AM 36.0831 159.6643 94° East  Level FlightAware Approximate
Thu 06:24:00 AM 36.1455 159.8304 87° East  Level Estimated
Thu 06:25:00 AM 36.1447 160.0137 90° East  Level FlightAware Approximate
Thu 06:26:00 AM 36.1437 160.1969 90° East  Level FlightAware Approximate
Thu 06:27:00 AM 36.1424 160.3802 90° East  Level FlightAware Approximate
Thu 06:28:00 AM 36.1408 160.5634 91° East  Level FlightAware Approximate
Thu 06:29:00 AM 36.1389 160.7466 91° East  Level FlightAware Approximate
Thu 06:30:00 AM 36.1368 160.9298 91° East  Level FlightAware Approximate
Thu 06:31:00 AM 36.1344 161.1130 91° East  Level FlightAware Approximate
Thu 06:32:00 AM 36.1317 161.2962 91° East  Level FlightAware Approximate
Thu 06:33:00 AM 36.1287 161.4794 91° East  Level FlightAware Approximate
Thu 06:34:00 AM 36.1254 161.6626 91° East  Level FlightAware Approximate
Thu 06:35:00 AM 36.1219 161.8457 91° East  Level FlightAware Approximate
Thu 06:36:00 AM 36.1181 162.0288 91° East  Level FlightAware Approximate
Thu 06:37:00 AM 36.1140 162.2119 92° East  Level FlightAware Approximate
Thu 06:38:00 AM 36.1737 162.3796 89° East  Level Estimated
Thu 06:39:00 AM 36.1704 162.5628 91° East  Level FlightAware Approximate
Thu 06:40:00 AM 36.1668 162.7461 91° East  Level FlightAware Approximate
Thu 06:41:00 AM 36.1629 162.9293 91° East  Level FlightAware Approximate
Thu 06:42:00 AM 36.1587 163.1125 92° East  Level FlightAware Approximate
Thu 06:43:00 AM 36.1542 163.2957 92° East  Level FlightAware Approximate
Thu 06:44:00 AM 36.1495 163.4789 92° East  Level FlightAware Approximate
Thu 06:45:00 AM 36.1445 163.6620 92° East  Level FlightAware Approximate
Thu 06:46:00 AM 36.1390 163.8530 92° East  Level FlightAware Approximate
Thu 06:47:00 AM 36.1996 164.0288 90° East  Level Estimated
Thu 06:48:00 AM 36.1978 164.2200 91° East  Level FlightAware Approximate
Thu 06:49:00 AM 36.1957 164.4112 91° East  Level FlightAware Approximate
Thu 06:50:00 AM 36.1933 164.6024 91° East  Level FlightAware Approximate
Thu 06:51:00 AM 36.1906 164.7935 91° East  Level FlightAware Approximate
Thu 06:52:00 AM 36.1876 164.9847 91° East  Level FlightAware Approximate
Thu 06:53:00 AM 36.1843 165.1758 91° East  Level FlightAware Approximate
Thu 06:54:00 AM 36.1807 165.3669 91° East  Level FlightAware Approximate
Thu 06:54:33 AM 36.0833 167.0833 91° East 579 666 37,000  Level Oakland Oceanic (ODAPS)
Thu 07:08:13 AM 36.0000 169.8167 90° East 584 672 37,000  Level Oakland Oceanic (ODAPS)
Thu 07:09:13 AM 36.0000 170.0000 87° East 591 680 37,000 144 Level Oakland Oceanic (ODAPS)
Thu 07:22:06 AM 36.0833 172.5833 89° East 605 696 39,000 74 Climbing Oakland Oceanic (ODAPS)
Thu 07:36:12 AM 36.1000 175.4167 90° East 609 701 39,000  Level Oakland Oceanic (ODAPS)
Thu 07:49:58 AM 36.0500 178.3500 92° East 626 720 39,000  Level Oakland Oceanic (ODAPS)
Thu 07:57:34 AM 36.0000 180.0000 80° East 634 730 39,000  Level Oakland Oceanic (ODAPS)
Thu 08:03:42 AM 36.1833 -178.6667 81° East 636 732 39,000  Level Oakland Oceanic (ODAPS)
Thu 08:17:34 AM 36.5333 -175.7000 82° East 632 727 39,000  Level Oakland Oceanic (ODAPS)
Thu 08:31:26 AM 36.8167 -172.7167 84° East 629 724 39,000  Level Oakland Oceanic (ODAPS)
Thu 08:44:09 AM 37.0000 -170.0000 80° East 625 719 39,000  Level Oakland Oceanic (ODAPS)
Thu 08:45:18 AM 37.0333 -169.7333 80° East 626 720 39,000  Level Oakland Oceanic (ODAPS)
Thu 08:59:10 AM 37.4167 -166.7333 82° East 628 723 39,000  Level Oakland Oceanic (ODAPS)
Thu 09:13:02 AM 37.7333 -163.7167 84° East 621 715 39,000  Level Oakland Oceanic (ODAPS)
Thu 09:26:53 AM 37.9500 -160.7167 85° East 610 702 39,000  Level Oakland Oceanic (ODAPS)
Thu 09:30:15 AM 38.0000 -160.0000 87° East 600 690 39,000  Level Oakland Oceanic (ODAPS)
Thu 09:40:48 AM 38.0667 -157.7500 88° East 595 685 39,000  Level Oakland Oceanic (ODAPS)
Thu 09:54:38 AM 38.1000 -154.8833 90° East 580 667 39,000  Level Oakland Oceanic (ODAPS)
Thu 10:08:30 AM 38.0667 -152.1333 92° East 559 643 39,000  Level Oakland Oceanic (ODAPS)
Thu 10:19:41 AM 38.0000 -150.0000 80° East 543 625 39,000  Level Oakland Oceanic (ODAPS)
Thu 10:22:22 AM 38.0667 -149.5000 80° East 542 624 39,000  Level Oakland Oceanic (ODAPS)
Thu 10:36:14 AM 38.4000 -146.9000 81° East 543 625 39,000  Level Oakland Oceanic (ODAPS)
Thu 10:50:06 AM 38.6833 -144.2500 83° East 549 632 39,000  Level Oakland Oceanic (ODAPS)
Thu 11:03:57 AM 38.9000 -141.5500 85° East 543 625 39,000  Level Oakland Oceanic (ODAPS)
Thu 11:12:02 AM 39.0000 -140.0000 87° East 541 623 39,000  Level Oakland Oceanic (ODAPS)
Thu 11:17:49 AM 39.0500 -138.8667 88° East 539 620 39,000  Level Oakland Oceanic (ODAPS)
Thu 11:31:41 AM 39.1000 -136.1667 89° East 537 618 39,000  Level Oakland Oceanic (ODAPS)
Thu 11:45:33 AM 39.1000 -133.5333 91° East 524 603 39,000  Level Oakland Oceanic (ODAPS)
Thu 11:59:25 AM 39.0333 -130.9500 92° East 530 610 39,000  Level Oakland Oceanic (ODAPS)
Thu 12:04:33 PM 39.0000 -130.0000 102° East 529 609 39,000  Level Oakland Oceanic (ODAPS)
Thu 12:13:18 PM 38.7167 -128.3833 103° East 535 616 39,000  Level Oakland Oceanic (ODAPS)
Thu 12:17:12 PM 38.5833 -127.6500 103° East 534 615 39,000  Level Oakland Oceanic (ODAPS)
Thu 12:18:14 PM 38.5514 -127.4481 111° Southeast 535 616 39,000  Level Oakland Center
Thu 12:19:00 PM 38.5307 -127.3449 103° East 535 616 39,000  Level FlightAware Transoceanic
Thu 12:19:15 PM 38.5192 -127.2642 103° East 533 613 39,000  Level Oakland Center
Thu 12:20:00 PM 38.4988 -127.1724 103° East 535 616 39,000 -98 Level FlightAware Transoceanic
Thu 12:20:16 PM 38.4833 -127.0800 104° East 534 615 38,900  Descending Oakland Center
Thu 12:21:00 PM 38.4667 -127.0000 111° Southeast 535 616 39,000 97 Climbing FlightAware Transoceanic
Thu 12:21:18 PM 38.4389 -126.9014 108° East 532 612 39,000  Level Oakland Center
Thu 12:22:00 PM 38.4094 -126.8114 111° Southeast 535 616 39,000 -98 Level FlightAware Transoceanic
Thu 12:22:19 PM 38.3847 -126.7269 112° Southeast 532 612 38,900  Descending Oakland Center
Thu 12:23:00 PM 38.3518 -126.6232 111° Southeast 534 615 39,000  Climbing FlightAware Transoceanic
Thu 12:23:21 PM 38.3267 -126.5544 113° Southeast 532 612 38,900 -73 Descending Oakland Center
Thu 12:24:22 PM 38.2636 -126.3847 115° Southeast 532 612 38,900 49 Level Oakland Center
Thu 12:25:24 PM 38.1964 -126.2011 115° Southeast 534 615 39,000  Climbing Oakland Center
Thu 12:26:25 PM 38.1331 -126.0336 116° Southeast 530 610 38,900  Descending Oakland Center
Thu 12:27:27 PM 38.0706 -125.8642 115° Southeast 531 611 39,000 49 Climbing Oakland Center
Thu 12:28:28 PM 38.0072 -125.6953 115° Southeast 531 611 39,000 -49 Level Oakland Center
Thu 12:29:30 PM 37.9306 -125.4944 116° Southeast 530 610 38,900  Descending Oakland Center
Thu 12:30:31 PM 37.8672 -125.3244 115° Southeast 533 613 39,000  Climbing Oakland Center
Thu 12:31:33 PM 37.8019 -125.1561 116° Southeast 535 616 38,900 -49 Descending Oakland Center
Thu 12:32:34 PM 37.7378 -124.9875 116° Southeast 535 616 38,900 49 Level Oakland Center
Thu 12:33:35 PM 37.6722 -124.8186 116° Southeast 537 618 39,000 49 Climbing Oakland Center
Thu 12:34:37 PM 37.6064 -124.6486 116° Southeast 540 621 39,000  Level Oakland Center
Thu 12:35:38 PM 37.5408 -124.4797 116° Southeast 541 623 39,000  Level Oakland Center
Thu 12:36:40 PM 37.4739 -124.3100 116° Southeast 542 624 39,000 -49 Level Oakland Center
Thu 12:37:41 PM 37.3939 -124.1069 116° Southeast 542 624 38,900  Descending Oakland Center
Thu 12:38:42 PM 37.3256 -123.9375 117° Southeast 546 628 39,000 49 Climbing Oakland Center
Thu 12:39:44 PM 37.2564 -123.7664 117° Southeast 552 635 39,000 -49 Level Oakland Center
Thu 12:40:45 PM 37.1883 -123.5981 117° Southeast 546 628 38,900 -49 Descending Oakland Center
Thu 12:41:46 PM 37.1203 -123.4303 117° Southeast 543 625 38,900 49 Level Oakland Center
Thu 12:42:48 PM 37.0533 -123.2614 116° Southeast 545 627 39,000 49 Climbing Oakland Center
Thu 12:43:49 PM 36.9844 -123.0933 117° Southeast 546 628 39,000  Level Oakland Center
Thu 12:44:51 PM 36.9153 -122.9264 117° Southeast 545 627 39,000 -49 Level Oakland Center
Thu 12:45:52 PM 36.8342 -122.7264 117° Southeast 541 623 38,900 -49 Descending Oakland Center
Thu 12:46:53 PM 36.7642 -122.5586 117° Southeast 545 627 38,900 49 Level Oakland Center
Thu 12:47:55 PM 36.6939 -122.3936 118° Southeast 542 624 39,000  Climbing Oakland Center
Thu 12:48:56 PM 36.6250 -122.2278 117° Southeast 542 624 38,900  Descending Oakland Center
Thu 12:49:57 PM 36.5558 -122.0617 117° Southeast 542 624 39,000 49 Climbing Oakland Center
Thu 12:50:59 PM 36.4856 -121.8961 118° Southeast 545 627 39,000  Level Oakland Center
Thu 12:52:00 PM 36.4100 -121.7183 118° Southeast 539 620 39,000  Level Oakland Center
Thu 12:53:01 PM 36.3389 -121.5547 118° Southeast 539 620 39,000  Level Oakland Center
Thu 12:54:02 PM 36.2678 -121.3917 118° Southeast 539 620 39,000  Level Oakland Center
Thu 12:55:04 PM 36.1992 -121.2306 118° Southeast 533 613 39,000  Level Oakland Center
Thu 12:56:05 PM 36.1653 -121.0692 105° East 494 568 39,000 -49 Level Oakland Center
Thu 12:57:06 PM 36.1647 -120.9028 90° East 479 551 38,900  Descending Oakland Center
Thu 01:02:31 PM 35.7254 -120.1124 90° East 495 570 39,000 -33 Climbing FlightAware ADS-B
Thu 01:03:10 PM 35.6838 -120.0414 126° Southeast 493 567 38,700 -1,814 Descending FlightAware ADS-B
Thu 01:03:57 PM 35.6032 -119.9406 134° Southeast 524 603 36,400 -2,692 Descending FlightAware ADS-B
Thu 01:04:28 PM 35.5334 -119.8804 145° Southeast 531 611 35,200 -2,156 Descending FlightAware ADS-B
Thu 01:05:01 PM 35.4837 -119.8378 145° Southeast 524 603 34,100 -2,084 Descending FlightAware ADS-B
Thu 01:06:03 PM 35.3369 -119.7453 153° Southeast 511 588 31,900 -1,714 Descending FlightAware ADS-B
Thu 01:07:00 PM 35.2006 -119.7422 179° South 490 564 30,700 -1,462 Descending FlightAware ADS-B
Thu 01:08:02 PM 35.1570 -119.7407 178° South 454 522 29,000 -1,558 Descending FlightAware ADS-B
Thu 01:08:44 PM 35.0118 -119.6203 146° Southeast 442 509 28,000 -1,546 Descending FlightAware ADS-B
Thu 01:09:39 PM 34.9489 -119.5490 137° Southeast 429 494 26,500 -1,625 Descending FlightAware ADS-B
Thu 01:10:20 PM 34.8761 -119.4662 137° Southeast 415 478 25,400 -1,596 Descending FlightAware ADS-B
Thu 01:11:13 PM 34.8032 -119.3834 137° Southeast 408 470 24,000 -1,563 Descending FlightAware ADS-B
Thu 01:11:56 PM 34.7417 -119.3136 137° Southeast 401 461 22,900 -1,588 Descending FlightAware ADS-B
Thu 01:12:55 PM 34.6651 -119.2270 137° Southeast 389 448 21,300 -1,705 Descending FlightAware ADS-B
Thu 01:13:31 PM 34.6161 -119.1721 137° Southeast 381 438 20,200 -1,704 Descending FlightAware ADS-B
Thu 01:14:16 PM 34.5551 -119.1074 139° Southeast 375 432 19,000 -1,636 Descending FlightAware ADS-B
Thu 01:14:59 PM 34.4945 -119.0600 147° Southeast 369 425 17,800 -1,535 Descending FlightAware ADS-B
Thu 01:15:42 PM 34.4328 -119.0130 148° Southeast 362 417 16,800 -1,517 Descending FlightAware ADS-B
Thu 01:16:26 PM 34.3723 -118.9669 148° Southeast 355 409 15,600 -1,888 Descending FlightAware ADS-B
Thu 01:17:11 PM 34.3076 -118.9182 148° Southeast 349 402 14,000 -1,902 Descending FlightAware ADS-B
Thu 01:17:48 PM 34.2571 -118.8800 148° Southeast 345 397 13,000 -1,500 Descending FlightAware ADS-B
Thu 01:18:35 PM 34.2010 -118.8378 148° Southeast 332 382 11,900 -1,037 Descending FlightAware ADS-B
Thu 01:19:09 PM 34.1507 -118.8060 152° Southeast 294 338 11,600 -973 Descending FlightAware ADS-B
Thu 01:19:49 PM 34.1006 -118.7841 160° South 286 329 10,700 -1,286 Descending FlightAware ADS-B
Thu 01:20:05 PM 34.0923 -118.7750 138° Southeast 280 322 10,400 -1,077 Descending FlightAware ADS-B
Thu 01:20:28 PM 34.0772 -118.7330 113° Southeast 271 312 10,000 -720 Descending FlightAware ADS-B
Thu 01:20:55 PM 34.0679 -118.6947 106° East 269 310 9,800 -273 Descending FlightAware ADS-B
Thu 01:21:12 PM 34.0660 -118.6869 106° East 267 307 9,800 -471 Level FlightAware ADS-B
Thu 01:21:46 PM 34.0499 -118.6197 106° East 266 306 9,400 -1,019 Descending FlightAware ADS-B
Thu 01:22:05 PM 34.0434 -118.5932 106° East 264 304 8,900 -1,625 Descending FlightAware ADS-B
Thu 01:22:34 PM 34.0332 -118.5508 106° East 271 312 8,100 -1,592 Descending FlightAware ADS-B
Thu 01:22:54 PM 34.0268 -118.5245 106° East 271 312 7,600 -1,054 Descending FlightAware ADS-B
Thu 01:23:48 PM 34.0115 -118.4528 104° East 267 307 6,800 -822 Descending FlightAware ADS-B
Thu 01:24:07 PM 34.0133 -118.4164 87° East 262 302 6,600 -1,077 Descending FlightAware ADS-B
Thu 01:24:27 PM 34.0149 -118.3936 85° East 259 298 6,100 -1,750 Descending FlightAware ADS-B
Thu 01:24:55 PM 34.0177 -118.3632 84° East 243 280 5,200 -2,125 Descending FlightAware ADS-B
Thu 01:25:15 PM 34.0212 -118.3232 84° East 250 288 4,400 -1,425 Descending FlightAware ADS-B
Thu 01:26:15 PM 34.0290 -118.2397 84° East 248 285 3,300 -989 Descending FlightAware ADS-B
Thu 01:26:46 PM 34.0329 -118.1988 83° East 230 265 2,900 -723 Descending FlightAware ADS-B
Thu 01:27:38 PM 34.0011 -118.1651 139° Southeast 191 220 2,300 -286 Descending FlightAware ADS-B
Thu 01:28:52 PM 33.9704 -118.2224 237° Southwest 169 194 2,300  Level FlightAware ADS-B
Thu 01:29:12 PM 33.9701 -118.2247 263° West 168 193 2,300 -407 Level FlightAware ADS-B
Thu 01:29:51 PM 33.9650 -118.2740 263° West 168 193 1,900 -712 Descending FlightAware ADS-B
Thu 01:30:11 PM 33.9634 -118.2899 263° West 163 188 1,600 -900 Descending FlightAware ADS-B
Thu 01:30:31 PM 33.9612 -118.3128 263° West 152 175 1,300 -840 Descending FlightAware ADS-B
Thu 01:31:01 PM 33.9585 -118.3391 263° West 147 169 900 -762 Descending FlightAware ADS-B
Thu 01:31:34 PM 33.9561 -118.3631 263° West 151 174 500 -792 Descending FlightAware ADS-B
Thu 01:31:54 PM 33.9541 -118.3829 263° West 152 175 200 -300 Descending FlightAware ADS-B
Thu 01:32:54 PM 33.9500 -118.4325 263° West 155 178 100 -100 Descending Los Angeles Center

Login

Don't have an account? Register now (free) for customized features, flight alerts, and more!